sensor_id;sensor_type;location;lat;lon;timestamp;temperature;humidity
36442;DHT22;64346;50.820;16.274;2022-10-30T00:01:18;14.50;99.90
36442;DHT22;64346;50.820;16.274;2022-10-30T00:03:56;14.50;99.90
36442;DHT22;64346;50.820;16.274;2022-10-30T00:06:23;14.50;99.90
36442;DHT22;64346;50.820;16.274;2022-10-30T00:08:51;14.50;99.90
36442;DHT22;64346;50.820;16.274;2022-10-30T00:11:18;14.50;99.90
36442;DHT22;64346;50.820;16.274;2022-10-30T00:13:45;14.50;99.90
36442;DHT22;64346;50.820;16.274;2022-10-30T00:16:15;14.40;99.90
36442;DHT22;64346;50.820;16.274;2022-10-30T00:18:42;14.40;99.90
36442;DHT22;64346;50.820;16.274;2022-10-30T00:21:13;14.30;99.90
36442;DHT22;64346;50.820;16.274;2022-10-30T00:23:45;14.20;99.90
36442;DHT22;64346;50.820;16.274;2022-10-30T00:26:15;14.20;99.90
36442;DHT22;64346;50.820;16.274;2022-10-30T00:28:49;14.20;99.90
36442;DHT22;64346;50.820;16.274;2022-10-30T00:31:16;14.10;99.90
36442;DHT22;64346;50.820;16.274;2022-10-30T00:33:47;14.10;99.90
36442;DHT22;64346;50.820;16.274;2022-10-30T00:36:17;14.00;99.90
36442;DHT22;64346;50.820;16.274;2022-10-30T00:38:44;14.00;99.90
36442;DHT22;64346;50.820;16.274;2022-10-30T00:41:16;14.00;99.90
36442;DHT22;64346;50.820;16.274;2022-10-30T00:43:44;13.90;99.90
36442;DHT22;64346;50.820;16.274;2022-10-30T00:46:32;13.90;99.90
36442;DHT22;64346;50.820;16.274;2022-10-30T00:49:18;13.80;99.90
36442;DHT22;64346;50.820;16.274;2022-10-30T00:51:52;13.80;99.90
36442;DHT22;64346;50.820;16.274;2022-10-30T00:54:21;13.80;99.90
36442;DHT22;64346;50.820;16.274;2022-10-30T00:56:49;13.80;99.90
36442;DHT22;64346;50.820;16.274;2022-10-30T00:59:27;13.80;99.90
36442;DHT22;64346;50.820;16.274;2022-10-30T01:01:56;13.80;99.90
36442;DHT22;64346;50.820;16.274;2022-10-30T01:04:24;13.80;99.90
36442;DHT22;64346;50.820;16.274;2022-10-30T01:07:04;13.80;99.90
36442;DHT22;64346;50.820;16.274;2022-10-30T01:09:32;13.80;99.90
36442;DHT22;64346;50.820;16.274;2022-10-30T01:12:00;13.90;99.90
36442;DHT22;64346;50.820;16.274;2022-10-30T01:14:30;13.80;99.90
36442;DHT22;64346;50.820;16.274;2022-10-30T01:19:49;13.80;99.90
36442;DHT22;64346;50.820;16.274;2022-10-30T01:23:12;13.70;99.90
36442;DHT22;64346;50.820;16.274;2022-10-30T01:31:20;13.70;99.90
36442;DHT22;64346;50.820;16.274;2022-10-30T01:39:32;13.80;99.90
36442;DHT22;64346;50.820;16.274;2022-10-30T01:42:54;13.70;99.90
36442;DHT22;64346;50.820;16.274;2022-10-30T01:44:55;13.70;99.90
36442;DHT22;64346;50.820;16.274;2022-10-30T01:50:49;13.80;99.90
36442;DHT22;64346;50.820;16.274;2022-10-30T01:55:56;13.80;99.90
36442;DHT22;64346;50.820;16.274;2022-10-30T01:58:43;13.80;99.90
36442;DHT22;64346;50.820;16.274;2022-10-30T02:01:16;13.80;99.90
36442;DHT22;64346;50.820;16.274;2022-10-30T02:03:45;13.80;99.90
36442;DHT22;64346;50.820;16.274;2022-10-30T02:06:12;13.70;99.90
36442;DHT22;64346;50.820;16.274;2022-10-30T02:08:40;13.70;99.90
36442;DHT22;64346;50.820;16.274;2022-10-30T02:11:08;13.70;99.90
36442;DHT22;64346;50.820;16.274;2022-10-30T02:13:37;13.70;99.90
36442;DHT22;64346;50.820;16.274;2022-10-30T02:16:04;13.60;99.90
36442;DHT22;64346;50.820;16.274;2022-10-30T02:18:32;13.60;99.90
36442;DHT22;64346;50.820;16.274;2022-10-30T02:21:00;13.50;99.90
36442;DHT22;64346;50.820;16.274;2022-10-30T02:23:29;13.50;99.90
36442;DHT22;64346;50.820;16.274;2022-10-30T02:25:57;13.50;99.90
36442;DHT22;64346;50.820;16.274;2022-10-30T02:28:24;13.50;99.90
36442;DHT22;64346;50.820;16.274;2022-10-30T02:30:51;13.60;99.90
36442;DHT22;64346;50.820;16.274;2022-10-30T02:33:19;13.70;99.90
36442;DHT22;64346;50.820;16.274;2022-10-30T02:35:46;13.70;99.90
36442;DHT22;64346;50.820;16.274;2022-10-30T02:38:13;13.70;99.90
36442;DHT22;64346;50.820;16.274;2022-10-30T02:40:41;13.70;99.90
36442;DHT22;64346;50.820;16.274;2022-10-30T02:43:11;13.70;99.90
36442;DHT22;64346;50.820;16.274;2022-10-30T02:45:38;13.70;99.90
36442;DHT22;64346;50.820;16.274;2022-10-30T02:48:05;13.70;99.90
36442;DHT22;64346;50.820;16.274;2022-10-30T02:50:35;13.60;99.90
36442;DHT22;64346;50.820;16.274;2022-10-30T02:53:05;13.60;99.90
36442;DHT22;64346;50.820;16.274;2022-10-30T02:55:32;13.60;99.90
36442;DHT22;64346;50.820;16.274;2022-10-30T02:58:00;13.50;99.90
36442;DHT22;64346;50.820;16.274;2022-10-30T03:03:17;13.40;99.90
36442;DHT22;64346;50.820;16.274;2022-10-30T03:05:52;13.30;99.90
36442;DHT22;64346;50.820;16.274;2022-10-30T03:08:19;13.20;99.90
36442;DHT22;64346;50.820;16.274;2022-10-30T03:10:46;13.10;99.90
36442;DHT22;64346;50.820;16.274;2022-10-30T03:13:14;13.10;99.90
36442;DHT22;64346;50.820;16.274;2022-10-30T03:15:41;13.00;99.90
36442;DHT22;64346;50.820;16.274;2022-10-30T03:18:08;12.90;99.90
36442;DHT22;64346;50.820;16.274;2022-10-30T03:20:36;12.90;99.90
36442;DHT22;64346;50.820;16.274;2022-10-30T03:23:03;12.80;99.90
36442;DHT22;64346;50.820;16.274;2022-10-30T03:25:33;12.80;99.90
36442;DHT22;64346;50.820;16.274;2022-10-30T03:28:02;12.80;99.90
36442;DHT22;64346;50.820;16.274;2022-10-30T03:30:32;12.80;99.90
36442;DHT22;64346;50.820;16.274;2022-10-30T03:33:00;12.80;99.90
36442;DHT22;64346;50.820;16.274;2022-10-30T03:35:27;12.70;99.90
36442;DHT22;64346;50.820;16.274;2022-10-30T03:37:54;12.80;99.90
36442;DHT22;64346;50.820;16.274;2022-10-30T03:40:26;12.70;99.90
36442;DHT22;64346;50.820;16.274;2022-10-30T03:42:53;12.70;99.90
36442;DHT22;64346;50.820;16.274;2022-10-30T03:45:23;12.70;99.90
36442;DHT22;64346;50.820;16.274;2022-10-30T03:47:50;12.70;99.90
36442;DHT22;64346;50.820;16.274;2022-10-30T03:50:18;12.70;99.90
36442;DHT22;64346;50.820;16.274;2022-10-30T03:52:45;12.70;99.90
36442;DHT22;64346;50.820;16.274;2022-10-30T03:55:13;12.70;99.90
36442;DHT22;64346;50.820;16.274;2022-10-30T03:57:40;12.70;99.90
36442;DHT22;64346;50.820;16.274;2022-10-30T04:00:07;12.70;99.90
36442;DHT22;64346;50.820;16.274;2022-10-30T04:02:35;12.70;99.90
36442;DHT22;64346;50.820;16.274;2022-10-30T04:05:04;12.70;99.90
36442;DHT22;64346;50.820;16.274;2022-10-30T04:07:32;12.70;99.90
36442;DHT22;64346;50.820;16.274;2022-10-30T04:10:02;12.60;99.90
36442;DHT22;64346;50.820;16.274;2022-10-30T04:12:29;12.60;99.90
36442;DHT22;64346;50.820;16.274;2022-10-30T04:14:59;12.60;99.90
36442;DHT22;64346;50.820;16.274;2022-10-30T04:17:26;12.60;99.90
36442;DHT22;64346;50.820;16.274;2022-10-30T04:19:53;12.60;99.90
36442;DHT22;64346;50.820;16.274;2022-10-30T04:22:21;12.60;99.90
36442;DHT22;64346;50.820;16.274;2022-10-30T04:24:48;12.60;99.90
36442;DHT22;64346;50.820;16.274;2022-10-30T04:27:15;12.60;99.90
36442;DHT22;64346;50.820;16.274;2022-10-30T04:29:43;12.50;99.90
36442;DHT22;64346;50.820;16.274;2022-10-30T04:32:10;12.50;99.90
36442;DHT22;64346;50.820;16.274;2022-10-30T04:34:42;12.50;99.90
36442;DHT22;64346;50.820;16.274;2022-10-30T04:37:12;12.50;99.90
36442;DHT22;64346;50.820;16.274;2022-10-30T04:39:39;12.40;99.90
36442;DHT22;64346;50.820;16.274;2022-10-30T04:42:14;12.40;99.90
36442;DHT22;64346;50.820;16.274;2022-10-30T04:44:41;12.40;99.90
36442;DHT22;64346;50.820;16.274;2022-10-30T04:47:08;12.40;99.90
36442;DHT22;64346;50.820;16.274;2022-10-30T04:49:36;12.40;99.90
36442;DHT22;64346;50.820;16.274;2022-10-30T04:52:03;12.40;99.90
36442;DHT22;64346;50.820;16.274;2022-10-30T04:54:33;12.40;99.90
36442;DHT22;64346;50.820;16.274;2022-10-30T04:57:03;12.40;99.90
36442;DHT22;64346;50.820;16.274;2022-10-30T04:59:30;12.50;99.90
36442;DHT22;64346;50.820;16.274;2022-10-30T05:01:57;12.50;99.90
36442;DHT22;64346;50.820;16.274;2022-10-30T05:04:25;12.50;99.90
36442;DHT22;64346;50.820;16.274;2022-10-30T05:06:52;12.50;99.90
36442;DHT22;64346;50.820;16.274;2022-10-30T05:09:19;12.50;99.90
36442;DHT22;64346;50.820;16.274;2022-10-30T05:11:46;12.60;99.90
36442;DHT22;64346;50.820;16.274;2022-10-30T05:14:13;12.60;99.90
36442;DHT22;64346;50.820;16.274;2022-10-30T05:16:41;12.70;99.90
36442;DHT22;64346;50.820;16.274;2022-10-30T05:19:08;12.60;99.90
36442;DHT22;64346;50.820;16.274;2022-10-30T05:21:36;12.60;99.90
36442;DHT22;64346;50.820;16.274;2022-10-30T05:24:06;12.70;99.90
36442;DHT22;64346;50.820;16.274;2022-10-30T05:26:36;12.70;99.90
36442;DHT22;64346;50.820;16.274;2022-10-30T05:29:03;12.70;99.90
36442;DHT22;64346;50.820;16.274;2022-10-30T05:31:30;12.70;99.90
36442;DHT22;64346;50.820;16.274;2022-10-30T05:33:58;12.70;99.90
36442;DHT22;64346;50.820;16.274;2022-10-30T05:36:30;12.80;99.90
36442;DHT22;64346;50.820;16.274;2022-10-30T05:38:59;12.80;99.90
36442;DHT22;64346;50.820;16.274;2022-10-30T05:41:28;12.80;99.90
36442;DHT22;64346;50.820;16.274;2022-10-30T05:43:55;12.90;99.90
36442;DHT22;64346;50.820;16.274;2022-10-30T05:46:23;12.90;99.90
36442;DHT22;64346;50.820;16.274;2022-10-30T05:48:50;13.00;99.90
36442;DHT22;64346;50.820;16.274;2022-10-30T05:51:18;13.00;99.90
36442;DHT22;64346;50.820;16.274;2022-10-30T05:53:47;13.10;99.90
36442;DHT22;64346;50.820;16.274;2022-10-30T05:56:14;13.20;99.90
36442;DHT22;64346;50.820;16.274;2022-10-30T05:58:44;13.30;99.90
36442;DHT22;64346;50.820;16.274;2022-10-30T06:01:14;13.50;99.90
36442;DHT22;64346;50.820;16.274;2022-10-30T06:03:41;13.70;99.90
36442;DHT22;64346;50.820;16.274;2022-10-30T06:06:11;13.90;99.90
36442;DHT22;64346;50.820;16.274;2022-10-30T06:08:39;14.20;99.90
36442;DHT22;64346;50.820;16.274;2022-10-30T06:11:06;14.60;99.90
36442;DHT22;64346;50.820;16.274;2022-10-30T06:13:33;14.90;99.90
36442;DHT22;64346;50.820;16.274;2022-10-30T06:16:03;15.30;99.90
36442;DHT22;64346;50.820;16.274;2022-10-30T06:18:30;15.80;99.90
36442;DHT22;64346;50.820;16.274;2022-10-30T06:21:00;16.40;99.90
36442;DHT22;64346;50.820;16.274;2022-10-30T06:23:29;16.90;99.90
36442;DHT22;64346;50.820;16.274;2022-10-30T06:25:56;17.60;99.90
36442;DHT22;64346;50.820;16.274;2022-10-30T06:28:26;17.90;99.90
36442;DHT22;64346;50.820;16.274;2022-10-30T06:30:54;18.70;99.90
36442;DHT22;64346;50.820;16.274;2022-10-30T06:33:23;18.90;99.90
36442;DHT22;64346;50.820;16.274;2022-10-30T06:35:51;18.90;99.90
36442;DHT22;64346;50.820;16.274;2022-10-30T06:38:18;19.30;99.90
36442;DHT22;64346;50.820;16.274;2022-10-30T06:40:47;20.20;99.90
36442;DHT22;64346;50.820;16.274;2022-10-30T06:43:15;21.50;99.90
36442;DHT22;64346;50.820;16.274;2022-10-30T06:45:42;22.20;99.90
36442;DHT22;64346;50.820;16.274;2022-10-30T06:48:09;23.30;99.90
36442;DHT22;64346;50.820;16.274;2022-10-30T06:50:39;24.40;98.00
36442;DHT22;64346;50.820;16.274;2022-10-30T06:53:06;25.40;95.10
36442;DHT22;64346;50.820;16.274;2022-10-30T06:55:35;25.50;93.50
36442;DHT22;64346;50.820;16.274;2022-10-30T06:58:03;25.30;93.00
36442;DHT22;64346;50.820;16.274;2022-10-30T07:00:32;25.40;92.50
36442;DHT22;64346;50.820;16.274;2022-10-30T07:03:00;25.40;91.70
36442;DHT22;64346;50.820;16.274;2022-10-30T07:05:29;26.30;90.60
36442;DHT22;64346;50.820;16.274;2022-10-30T07:07:56;28.10;86.70
36442;DHT22;64346;50.820;16.274;2022-10-30T07:10:26;29.70;80.20
36442;DHT22;64346;50.820;16.274;2022-10-30T07:12:57;30.60;75.30
36442;DHT22;64346;50.820;16.274;2022-10-30T07:15:25;31.60;71.70
36442;DHT22;64346;50.820;16.274;2022-10-30T07:17:53;31.80;69.00
36442;DHT22;64346;50.820;16.274;2022-10-30T07:20:22;33.00;66.80
36442;DHT22;64346;50.820;16.274;2022-10-30T07:22:50;33.90;64.70
36442;DHT22;64346;50.820;16.274;2022-10-30T07:25:17;34.40;61.80
36442;DHT22;64346;50.820;16.274;2022-10-30T07:27:50;35.00;60.30
36442;DHT22;64346;50.820;16.274;2022-10-30T07:30:19;34.90;59.30
36442;DHT22;64346;50.820;16.274;2022-10-30T07:32:57;35.20;58.90
36442;DHT22;64346;50.820;16.274;2022-10-30T07:35:27;33.40;60.00
36442;DHT22;64346;50.820;16.274;2022-10-30T07:38:09;33.20;60.30
36442;DHT22;64346;50.820;16.274;2022-10-30T07:40:39;33.90;59.50
36442;DHT22;64346;50.820;16.274;2022-10-30T07:43:08;32.80;60.10
36442;DHT22;64346;50.820;16.274;2022-10-30T07:45:35;31.20;62.50
36442;DHT22;64346;50.820;16.274;2022-10-30T07:48:04;30.00;64.50
36442;DHT22;64346;50.820;16.274;2022-10-30T07:50:34;28.90;67.20
36442;DHT22;64346;50.820;16.274;2022-10-30T07:53:01;29.10;67.60
36442;DHT22;64346;50.820;16.274;2022-10-30T07:55:29;29.90;65.90
36442;DHT22;64346;50.820;16.274;2022-10-30T07:57:56;30.20;66.00
36442;DHT22;64346;50.820;16.274;2022-10-30T08:00:26;30.30;66.20
36442;DHT22;64346;50.820;16.274;2022-10-30T08:02:59;30.50;65.70
36442;DHT22;64346;50.820;16.274;2022-10-30T08:05:30;29.80;66.40
36442;DHT22;64346;50.820;16.274;2022-10-30T08:08:00;28.70;67.30
36442;DHT22;64346;50.820;16.274;2022-10-30T08:10:28;27.50;69.20
36442;DHT22;64346;50.820;16.274;2022-10-30T08:12:58;26.50;71.30
36442;DHT22;64346;50.820;16.274;2022-10-30T08:15:25;25.60;72.80
36442;DHT22;64346;50.820;16.274;2022-10-30T08:17:55;25.10;74.50
36442;DHT22;64346;50.820;16.274;2022-10-30T08:20:23;24.50;75.90
36442;DHT22;64346;50.820;16.274;2022-10-30T08:22:52;24.30;76.90
36442;DHT22;64346;50.820;16.274;2022-10-30T08:25:23;24.10;77.80
36442;DHT22;64346;50.820;16.274;2022-10-30T08:27:55;27.80;73.00
36442;DHT22;64346;50.820;16.274;2022-10-30T08:30:25;32.90;64.60
36442;DHT22;64346;50.820;16.274;2022-10-30T08:32:57;36.80;58.60
36442;DHT22;64346;50.820;16.274;2022-10-30T08:35:25;39.90;55.70
36442;DHT22;64346;50.820;16.274;2022-10-30T08:37:56;42.10;51.50
36442;DHT22;64346;50.820;16.274;2022-10-30T08:40:25;43.50;49.00
36442;DHT22;64346;50.820;16.274;2022-10-30T08:42:54;43.50;47.10
36442;DHT22;64346;50.820;16.274;2022-10-30T08:45:23;44.50;46.00
36442;DHT22;64346;50.820;16.274;2022-10-30T08:48:01;46.10;45.60
36442;DHT22;64346;50.820;16.274;2022-10-30T08:50:30;46.30;44.30
36442;DHT22;64346;50.820;16.274;2022-10-30T08:53:06;47.00;44.10
36442;DHT22;64346;50.820;16.274;2022-10-30T08:55:37;47.30;43.60
36442;DHT22;64346;50.820;16.274;2022-10-30T08:58:05;46.60;43.60
36442;DHT22;64346;50.820;16.274;2022-10-30T09:00:32;45.30;43.90
36442;DHT22;64346;50.820;16.274;2022-10-30T09:02:59;42.90;45.00
36442;DHT22;64346;50.820;16.274;2022-10-30T09:05:29;41.10;46.10
36442;DHT22;64346;50.820;16.274;2022-10-30T09:07:56;38.80;47.80
36442;DHT22;64346;50.820;16.274;2022-10-30T09:10:25;36.30;50.10
36442;DHT22;64346;50.820;16.274;2022-10-30T09:12:57;37.40;50.10
36442;DHT22;64346;50.820;16.274;2022-10-30T09:15:24;37.40;49.60
36442;DHT22;64346;50.820;16.274;2022-10-30T09:18:01;37.30;49.90
36442;DHT22;64346;50.820;16.274;2022-10-30T09:20:29;36.90;49.90
36442;DHT22;64346;50.820;16.274;2022-10-30T09:22:59;37.60;50.00
36442;DHT22;64346;50.820;16.274;2022-10-30T09:25:30;38.60;49.30
36442;DHT22;64346;50.820;16.274;2022-10-30T09:28:02;37.50;49.20
36442;DHT22;64346;50.820;16.274;2022-10-30T09:30:29;36.90;50.40
36442;DHT22;64346;50.820;16.274;2022-10-30T09:32:58;36.70;50.90
36442;DHT22;64346;50.820;16.274;2022-10-30T09:35:28;36.20;52.00
36442;DHT22;64346;50.820;16.274;2022-10-30T09:37:58;38.90;50.60
36442;DHT22;64346;50.820;16.274;2022-10-30T09:46:33;42.60;46.80
36442;DHT22;64346;50.820;16.274;2022-10-30T09:54:45;43.40;46.50
36442;DHT22;64346;50.820;16.274;2022-10-30T09:57:19;43.30;46.40
36442;DHT22;64346;50.820;16.274;2022-10-30T10:02:49;43.40;46.30
36442;DHT22;64346;50.820;16.274;2022-10-30T10:05:25;43.00;45.70
36442;DHT22;64346;50.820;16.274;2022-10-30T10:08:03;42.90;46.00
36442;DHT22;64346;50.820;16.274;2022-10-30T10:10:37;42.80;46.30
36442;DHT22;64346;50.820;16.274;2022-10-30T10:13:06;42.40;45.60
36442;DHT22;64346;50.820;16.274;2022-10-30T10:15:46;42.50;46.10
36442;DHT22;64346;50.820;16.274;2022-10-30T10:18:22;41.90;46.30
36442;DHT22;64346;50.820;16.274;2022-10-30T10:20:54;42.20;46.40
36442;DHT22;64346;50.820;16.274;2022-10-30T10:26:04;43.00;45.60
36442;DHT22;64346;50.820;16.274;2022-10-30T10:28:56;42.90;45.70
36442;DHT22;64346;50.820;16.274;2022-10-30T10:51:06;40.40;47.10
36442;DHT22;64346;50.820;16.274;2022-10-30T10:54:01;39.20;47.10
36442;DHT22;64346;50.820;16.274;2022-10-30T10:56:30;37.60;48.30
36442;DHT22;64346;50.820;16.274;2022-10-30T10:59:03;36.20;50.40
36442;DHT22;64346;50.820;16.274;2022-10-30T11:01:39;36.70;50.90
36442;DHT22;64346;50.820;16.274;2022-10-30T11:04:29;37.60;50.00
36442;DHT22;64346;50.820;16.274;2022-10-30T11:06:57;38.80;49.50
36442;DHT22;64346;50.820;16.274;2022-10-30T11:09:30;39.00;48.00
36442;DHT22;64346;50.820;16.274;2022-10-30T11:11:58;38.90;47.40
36442;DHT22;64346;50.820;16.274;2022-10-30T11:14:30;37.60;48.20
36442;DHT22;64346;50.820;16.274;2022-10-30T11:17:12;36.40;49.90
36442;DHT22;64346;50.820;16.274;2022-10-30T11:19:42;35.20;51.70
36442;DHT22;64346;50.820;16.274;2022-10-30T11:22:36;34.10;53.50
36442;DHT22;64346;50.820;16.274;2022-10-30T11:25:26;33.00;54.80
36442;DHT22;64346;50.820;16.274;2022-10-30T11:28:01;31.60;56.40
36442;DHT22;64346;50.820;16.274;2022-10-30T11:30:29;30.70;57.80
36442;DHT22;64346;50.820;16.274;2022-10-30T11:32:58;30.00;58.90
36442;DHT22;64346;50.820;16.274;2022-10-30T11:35:26;29.20;60.20
36442;DHT22;64346;50.820;16.274;2022-10-30T11:38:17;28.60;61.50
36442;DHT22;64346;50.820;16.274;2022-10-30T11:40:50;28.00;62.20
36442;DHT22;64346;50.820;16.274;2022-10-30T11:43:21;27.50;63.50
36442;DHT22;64346;50.820;16.274;2022-10-30T11:45:49;27.00;64.40
36442;DHT22;64346;50.820;16.274;2022-10-30T11:48:25;26.60;65.40
36442;DHT22;64346;50.820;16.274;2022-10-30T11:50:58;26.30;66.00
36442;DHT22;64346;50.820;16.274;2022-10-30T11:53:46;26.00;66.50
36442;DHT22;64346;50.820;16.274;2022-10-30T11:56:19;25.80;67.70
36442;DHT22;64346;50.820;16.274;2022-10-30T11:58:56;25.50;68.60
36442;DHT22;64346;50.820;16.274;2022-10-30T12:01:33;25.20;69.20
36442;DHT22;64346;50.820;16.274;2022-10-30T12:04:33;25.00;69.20
36442;DHT22;64346;50.820;16.274;2022-10-30T12:09:45;24.60;70.00
36442;DHT22;64346;50.820;16.274;2022-10-30T12:14:51;24.50;70.90
36442;DHT22;64346;50.820;16.274;2022-10-30T12:17:22;24.40;70.80
36442;DHT22;64346;50.820;16.274;2022-10-30T12:19:51;24.30;70.90
36442;DHT22;64346;50.820;16.274;2022-10-30T12:22:30;24.20;71.40
36442;DHT22;64346;50.820;16.274;2022-10-30T12:25:23;24.10;71.60
36442;DHT22;64346;50.820;16.274;2022-10-30T12:28:14;24.00;72.30
36442;DHT22;64346;50.820;16.274;2022-10-30T12:33:23;23.80;73.00
36442;DHT22;64346;50.820;16.274;2022-10-30T12:35:55;23.70;73.60
36442;DHT22;64346;50.820;16.274;2022-10-30T12:38:31;23.60;74.30
36442;DHT22;64346;50.820;16.274;2022-10-30T12:43:34;23.40;74.90
36442;DHT22;64346;50.820;16.274;2022-10-30T12:52:23;23.00;76.70
36442;DHT22;64346;50.820;16.274;2022-10-30T12:57:35;22.60;77.90
36442;DHT22;64346;50.820;16.274;2022-10-30T13:00:14;22.50;78.40
36442;DHT22;64346;50.820;16.274;2022-10-30T13:02:59;22.40;79.00
36442;DHT22;64346;50.820;16.274;2022-10-30T13:05:50;22.20;79.40
36442;DHT22;64346;50.820;16.274;2022-10-30T13:13:45;21.90;81.00
36442;DHT22;64346;50.820;16.274;2022-10-30T13:16:27;21.80;81.50
36442;DHT22;64346;50.820;16.274;2022-10-30T13:18:56;21.80;81.90
36442;DHT22;64346;50.820;16.274;2022-10-30T13:21:26;21.70;82.30
36442;DHT22;64346;50.820;16.274;2022-10-30T13:27:06;21.70;82.00
36442;DHT22;64346;50.820;16.274;2022-10-30T13:29:51;21.60;81.00
36442;DHT22;64346;50.820;16.274;2022-10-30T13:40:44;21.20;80.40
36442;DHT22;64346;50.820;16.274;2022-10-30T13:43:27;21.20;80.80
36442;DHT22;64346;50.820;16.274;2022-10-30T13:52:14;21.00;83.10
36442;DHT22;64346;50.820;16.274;2022-10-30T13:55:04;21.00;83.80
36442;DHT22;64346;50.820;16.274;2022-10-30T14:05:53;21.00;85.00
36442;DHT22;64346;50.820;16.274;2022-10-30T14:08:34;21.10;84.60
36442;DHT22;64346;50.820;16.274;2022-10-30T14:11:04;21.10;84.40
36442;DHT22;64346;50.820;16.274;2022-10-30T14:19:09;21.20;84.70
36442;DHT22;64346;50.820;16.274;2022-10-30T14:24:22;21.10;85.40
36442;DHT22;64346;50.820;16.274;2022-10-30T14:39:53;20.70;87.40
36442;DHT22;64346;50.820;16.274;2022-10-30T14:42:46;20.60;87.00
36442;DHT22;64346;50.820;16.274;2022-10-30T14:46:11;20.50;87.20
36442;DHT22;64346;50.820;16.274;2022-10-30T14:51:21;20.20;88.20
36442;DHT22;64346;50.820;16.274;2022-10-30T14:56:48;20.10;88.80
36442;DHT22;64346;50.820;16.274;2022-10-30T15:06:59;19.80;90.60
36442;DHT22;64346;50.820;16.274;2022-10-30T15:15:36;19.60;90.70
36442;DHT22;64346;50.820;16.274;2022-10-30T15:18:23;19.50;90.80
36442;DHT22;64346;50.820;16.274;2022-10-30T15:21:03;19.50;91.10
36442;DHT22;64346;50.820;16.274;2022-10-30T15:23:32;19.40;91.00
36442;DHT22;64346;50.820;16.274;2022-10-30T15:26:04;19.30;91.50
36442;DHT22;64346;50.820;16.274;2022-10-30T15:28:37;19.20;91.80
36442;DHT22;64346;50.820;16.274;2022-10-30T15:31:24;19.20;92.40
36442;DHT22;64346;50.820;16.274;2022-10-30T15:33:53;19.10;92.80
36442;DHT22;64346;50.820;16.274;2022-10-30T15:36:33;19.10;92.90
36442;DHT22;64346;50.820;16.274;2022-10-30T15:39:09;19.00;93.30
36442;DHT22;64346;50.820;16.274;2022-10-30T15:41:46;18.90;93.60
36442;DHT22;64346;50.820;16.274;2022-10-30T15:44:20;18.90;94.10
36442;DHT22;64346;50.820;16.274;2022-10-30T15:46:51;18.90;94.30
36442;DHT22;64346;50.820;16.274;2022-10-30T15:52:01;18.80;94.70
36442;DHT22;64346;50.820;16.274;2022-10-30T15:54:29;18.70;95.10
36442;DHT22;64346;50.820;16.274;2022-10-30T15:56:58;18.70;95.40
36442;DHT22;64346;50.820;16.274;2022-10-30T16:00:07;18.60;95.70
36442;DHT22;64346;50.820;16.274;2022-10-30T16:05:33;18.40;97.00
36442;DHT22;64346;50.820;16.274;2022-10-30T16:08:02;18.30;97.50
36442;DHT22;64346;50.820;16.274;2022-10-30T16:10:34;18.20;98.10
36442;DHT22;64346;50.820;16.274;2022-10-30T16:13:05;18.10;98.70
36442;DHT22;64346;50.820;16.274;2022-10-30T16:15:34;18.00;99.20
36442;DHT22;64346;50.820;16.274;2022-10-30T16:20:44;17.90;99.90
36442;DHT22;64346;50.820;16.274;2022-10-30T16:23:12;17.80;99.90
36442;DHT22;64346;50.820;16.274;2022-10-30T16:25:40;17.80;99.90
36442;DHT22;64346;50.820;16.274;2022-10-30T16:31:03;17.70;99.90
36442;DHT22;64346;50.820;16.274;2022-10-30T16:33:33;17.70;99.90
36442;DHT22;64346;50.820;16.274;2022-10-30T16:36:02;17.60;99.90
36442;DHT22;64346;50.820;16.274;2022-10-30T16:38:35;17.60;99.90
36442;DHT22;64346;50.820;16.274;2022-10-30T16:41:07;17.60;99.90
36442;DHT22;64346;50.820;16.274;2022-10-30T16:43:35;17.50;99.90
36442;DHT22;64346;50.820;16.274;2022-10-30T16:48:51;17.50;99.90
36442;DHT22;64346;50.820;16.274;2022-10-30T16:51:19;17.50;99.90
36442;DHT22;64346;50.820;16.274;2022-10-30T16:53:49;17.50;99.90
36442;DHT22;64346;50.820;16.274;2022-10-30T16:58:53;17.30;99.90
36442;DHT22;64346;50.820;16.274;2022-10-30T17:01:27;17.30;99.90
36442;DHT22;64346;50.820;16.274;2022-10-30T17:03:56;17.30;99.90
36442;DHT22;64346;50.820;16.274;2022-10-30T17:08:58;17.20;99.90
36442;DHT22;64346;50.820;16.274;2022-10-30T17:11:40;17.20;99.90
36442;DHT22;64346;50.820;16.274;2022-10-30T17:14:21;17.10;99.90
36442;DHT22;64346;50.820;16.274;2022-10-30T17:16:56;17.00;99.90
36442;DHT22;64346;50.820;16.274;2022-10-30T17:22:00;16.90;99.90
36442;DHT22;64346;50.820;16.274;2022-10-30T17:24:31;16.90;99.90
36442;DHT22;64346;50.820;16.274;2022-10-30T17:27:04;16.90;99.90
36442;DHT22;64346;50.820;16.274;2022-10-30T17:32:17;16.90;99.90
36442;DHT22;64346;50.820;16.274;2022-10-30T17:34:46;16.90;99.90
36442;DHT22;64346;50.820;16.274;2022-10-30T17:37:13;16.90;99.90
36442;DHT22;64346;50.820;16.274;2022-10-30T17:39:40;16.90;99.90
36442;DHT22;64346;50.820;16.274;2022-10-30T17:42:09;16.90;99.90
36442;DHT22;64346;50.820;16.274;2022-10-30T17:44:39;16.90;99.90
36442;DHT22;64346;50.820;16.274;2022-10-30T17:47:15;16.90;99.90
36442;DHT22;64346;50.820;16.274;2022-10-30T17:49:42;16.90;99.90
36442;DHT22;64346;50.820;16.274;2022-10-30T17:52:14;16.90;99.90
36442;DHT22;64346;50.820;16.274;2022-10-30T17:54:43;16.90;99.90
36442;DHT22;64346;50.820;16.274;2022-10-30T17:57:11;16.90;99.90
36442;DHT22;64346;50.820;16.274;2022-10-30T17:59:39;16.80;99.90
36442;DHT22;64346;50.820;16.274;2022-10-30T18:02:14;16.80;99.90
36442;DHT22;64346;50.820;16.274;2022-10-30T18:04:43;16.80;99.90
36442;DHT22;64346;50.820;16.274;2022-10-30T18:07:12;16.70;99.90
36442;DHT22;64346;50.820;16.274;2022-10-30T18:09:39;16.70;99.90
36442;DHT22;64346;50.820;16.274;2022-10-30T18:12:11;16.70;99.90
36442;DHT22;64346;50.820;16.274;2022-10-30T18:14:39;16.70;99.90
36442;DHT22;64346;50.820;16.274;2022-10-30T18:17:06;16.70;99.90
36442;DHT22;64346;50.820;16.274;2022-10-30T18:19:33;16.60;99.90
36442;DHT22;64346;50.820;16.274;2022-10-30T18:22:01;16.60;99.90
36442;DHT22;64346;50.820;16.274;2022-10-30T18:24:30;16.60;99.90
36442;DHT22;64346;50.820;16.274;2022-10-30T18:26:58;16.50;99.90
36442;DHT22;64346;50.820;16.274;2022-10-30T18:29:25;16.40;99.90
36442;DHT22;64346;50.820;16.274;2022-10-30T18:31:53;16.40;99.90
36442;DHT22;64346;50.820;16.274;2022-10-30T18:34:20;16.30;99.90
36442;DHT22;64346;50.820;16.274;2022-10-30T18:36:47;16.20;99.90